createdAt,value
2019-01-24T00:00:30.488Z,-4.86
2019-01-24T00:02:59.486Z,-4.85
2019-01-24T00:05:28.478Z,-4.82
2019-01-24T00:07:57.091Z,-4.83
2019-01-24T00:10:25.891Z,-4.83
2019-01-24T00:12:55.144Z,-4.89
2019-01-24T00:15:24.139Z,-4.86
2019-01-24T00:17:53.058Z,-4.79
2019-01-24T00:20:22.031Z,-4.81
2019-01-24T00:22:50.674Z,-4.80
2019-01-24T00:25:19.620Z,-4.82
2019-01-24T00:27:48.496Z,-4.77
2019-01-24T00:30:17.237Z,-4.74
2019-01-24T00:32:46.480Z,-4.68
2019-01-24T00:35:15.867Z,-4.70
2019-01-24T00:37:44.981Z,-4.69
2019-01-24T00:40:16.330Z,-4.72
2019-01-24T00:42:45.429Z,-4.72
2019-01-24T00:45:14.831Z,-4.72
2019-01-24T00:47:43.824Z,-4.75
2019-01-24T00:50:12.923Z,-4.75
2019-01-24T00:52:41.924Z,-4.78
2019-01-24T00:55:11.994Z,-4.80
2019-01-24T00:57:40.701Z,-4.77
2019-01-24T01:00:13.136Z,-4.76
2019-01-24T01:02:42.098Z,-4.72
2019-01-24T01:05:12.608Z,-4.77
2019-01-24T01:07:41.526Z,-4.76
2019-01-24T01:10:11.116Z,-4.80
2019-01-24T01:12:40.415Z,-4.81
2019-01-24T01:15:12.491Z,-4.83
2019-01-24T01:17:41.146Z,-4.75
2019-01-24T01:20:12.675Z,-4.74
2019-01-24T01:22:41.620Z,-4.77
2019-01-24T01:25:11.636Z,-4.75
2019-01-24T01:27:40.940Z,-4.75
2019-01-24T01:30:15.096Z,-4.79
2019-01-24T01:32:44.761Z,-4.68
2019-01-24T01:35:20.926Z,-4.79
2019-01-24T01:37:49.578Z,-4.83
2019-01-24T01:40:18.808Z,-4.82
2019-01-24T01:42:47.888Z,-4.82
2019-01-24T01:45:18.981Z,-4.74
2019-01-24T01:47:48.347Z,-4.73
2019-01-24T01:50:19.607Z,-4.72
2019-01-24T01:52:48.321Z,-4.32
2019-01-24T01:55:17.068Z,-3.87
2019-01-24T01:57:46.006Z,-4.10
2019-01-24T02:00:18.032Z,-4.34
2019-01-24T02:02:47.055Z,-4.47
2019-01-24T02:05:16.523Z,-4.69
2019-01-24T02:07:45.158Z,-4.85
2019-01-24T02:10:16.459Z,-4.82
2019-01-24T02:12:45.265Z,-4.86
2019-01-24T02:15:14.733Z,-4.88
2019-01-24T02:17:43.645Z,-4.87
2019-01-24T02:20:15.452Z,-4.87
2019-01-24T02:22:44.166Z,-4.90
2019-01-24T02:25:13.184Z,-4.84
2019-01-24T02:27:42.174Z,-4.90
2019-01-24T02:30:14.753Z,-4.85
2019-01-24T02:32:43.382Z,-4.86
2019-01-24T02:35:12.439Z,-4.87
2019-01-24T02:37:41.057Z,-4.88
2019-01-24T02:40:10.626Z,-4.93
2019-01-24T02:42:39.344Z,-4.86
2019-01-24T02:45:12.095Z,-4.87
2019-01-24T02:47:40.900Z,-4.84
2019-01-24T02:50:12.353Z,-4.89
2019-01-24T02:52:41.331Z,-4.93
2019-01-24T02:55:12.267Z,-4.87
2019-01-24T02:57:41.159Z,-4.83
2019-01-24T03:00:12.028Z,-4.82
2019-01-24T03:02:40.997Z,-4.78
2019-01-24T03:05:11.940Z,-4.79
2019-01-24T03:07:40.654Z,-4.75
2019-01-24T03:10:10.620Z,-4.80
2019-01-24T03:12:39.252Z,-4.86
2019-01-24T03:15:09.667Z,-4.87
2019-01-24T03:17:38.646Z,-4.92
2019-01-24T03:20:08.050Z,-4.88
2019-01-24T03:22:36.776Z,-4.94
2019-01-24T03:25:06.523Z,-4.91
2019-01-24T03:27:35.157Z,-4.89
2019-01-24T03:30:05.556Z,-4.87
2019-01-24T03:32:34.462Z,-4.90
2019-01-24T03:35:04.401Z,-4.87
2019-01-24T03:37:33.398Z,-4.87
2019-01-24T03:40:02.351Z,-4.89
2019-01-24T03:42:31.242Z,-4.81
2019-01-24T03:45:00.248Z,-4.82
2019-01-24T03:47:29.535Z,-4.81
2019-01-24T03:49:58.516Z,-4.76
2019-01-24T03:52:27.168Z,-4.80
2019-01-24T03:54:56.103Z,-4.77
2019-01-24T03:57:25.002Z,-4.80
2019-01-24T03:59:53.657Z,-4.79
2019-01-24T04:02:22.680Z,-4.72
2019-01-24T04:04:51.669Z,-4.66
2019-01-24T04:07:20.299Z,-4.70
2019-01-24T04:09:49.247Z,-4.71
2019-01-24T04:12:18.343Z,-4.73
2019-01-24T04:14:47.232Z,-4.66
2019-01-24T04:17:16.127Z,-4.68
2019-01-24T04:19:44.809Z,-4.70
2019-01-24T04:22:13.436Z,-4.69
2019-01-24T04:24:42.388Z,-4.72
2019-01-24T04:27:11.595Z,-4.74
2019-01-24T04:29:40.205Z,-4.77
2019-01-24T04:32:08.836Z,-4.76
2019-01-24T04:34:37.483Z,-4.77
2019-01-24T04:37:06.434Z,-4.76
2019-01-24T04:39:35.334Z,-4.76
2019-01-24T04:42:04.322Z,-4.79
2019-01-24T04:44:33.305Z,-4.77
2019-01-24T04:47:02.317Z,-4.75
2019-01-24T04:49:30.983Z,-4.75
2019-01-24T04:51:59.899Z,-4.70
2019-01-24T04:54:29.191Z,-4.67
2019-01-24T04:56:58.186Z,-4.65
2019-01-24T04:59:27.625Z,-4.66
2019-01-24T05:01:56.683Z,-4.68
2019-01-24T05:04:25.314Z,-4.63
2019-01-24T05:06:54.262Z,-4.57
2019-01-24T05:09:22.904Z,-4.54
2019-01-24T05:11:51.940Z,-4.57
2019-01-24T05:14:20.834Z,-4.55
2019-01-24T05:16:50.026Z,-4.40
2019-01-24T05:19:19.022Z,-4.45
2019-01-24T05:21:48.220Z,-4.51
2019-01-24T05:24:16.849Z,-4.47
2019-01-24T05:26:45.496Z,-4.41
2019-01-24T05:29:14.212Z,-4.40
2019-01-24T05:31:42.871Z,-4.49
2019-01-24T05:34:12.164Z,-4.44
2019-01-24T05:36:41.180Z,-4.50
2019-01-24T05:39:10.160Z,-4.49
2019-01-24T05:41:38.791Z,-4.57
2019-01-24T05:44:07.434Z,-4.53
2019-01-24T05:46:36.093Z,-4.48
2019-01-24T05:49:04.818Z,-4.51
2019-01-24T05:51:33.789Z,-4.45
2019-01-24T05:54:03.092Z,-4.46
2019-01-24T05:56:31.740Z,-4.49
2019-01-24T05:59:00.663Z,-4.47
2019-01-24T06:01:29.943Z,-4.40
2019-01-24T06:03:58.628Z,-4.42
2019-01-24T06:06:27.551Z,-4.37
2019-01-24T06:08:56.540Z,-4.37
2019-01-24T06:11:25.283Z,-4.34
2019-01-24T06:13:53.931Z,-4.37
2019-01-24T06:16:22.575Z,-4.31
2019-01-24T06:18:51.796Z,-4.24
2019-01-24T06:21:20.785Z,-4.23
2019-01-24T06:23:49.424Z,-4.23
2019-01-24T06:26:18.094Z,-4.24
2019-01-24T06:28:46.720Z,-4.16
2019-01-24T06:31:15.333Z,-4.11
2019-01-24T06:33:44.325Z,-4.19
2019-01-24T06:36:13.716Z,-4.18
2019-01-24T06:38:42.625Z,-4.18
2019-01-24T06:41:11.288Z,-4.19
2019-01-24T06:43:40.193Z,-4.17
2019-01-24T06:46:08.811Z,-4.14
2019-01-24T06:48:37.818Z,-4.12
2019-01-24T06:51:06.770Z,-4.12
2019-01-24T06:53:35.806Z,-4.14
2019-01-24T06:56:04.521Z,-4.17
2019-01-24T06:58:33.176Z,-4.13
2019-01-24T07:01:01.811Z,-4.25
2019-01-24T07:03:30.535Z,-4.23
2019-01-24T07:05:59.166Z,-4.20
2019-01-24T07:08:28.087Z,-4.19
2019-01-24T07:10:57.150Z,-4.15
2019-01-24T07:13:26.384Z,-4.11
2019-01-24T07:15:55.052Z,-4.16
2019-01-24T07:18:24.067Z,-4.11
2019-01-24T07:20:52.694Z,-4.11
2019-01-24T07:23:21.745Z,-4.08
2019-01-24T07:25:51.150Z,-4.09
2019-01-24T07:28:20.173Z,-4.10
2019-01-24T07:30:49.127Z,-4.10
2019-01-24T07:33:18.331Z,-4.06
2019-01-24T07:35:47.324Z,-4.06
2019-01-24T07:38:15.964Z,-4.03
2019-01-24T07:40:46.236Z,-3.98
2019-01-24T07:43:15.765Z,-3.97
2019-01-24T07:45:44.429Z,-3.97
2019-01-24T07:48:13.072Z,-3.98
2019-01-24T07:50:42.008Z,-3.96
2019-01-24T07:53:11.004Z,-3.97
2019-01-24T07:55:39.996Z,-3.38
2019-01-24T07:58:08.884Z,-1.35
2019-01-24T08:00:37.537Z,-1.77
2019-01-24T08:03:06.566Z,-2.78
2019-01-24T08:05:35.532Z,-3.37
2019-01-24T08:08:04.561Z,-3.59
2019-01-24T08:10:33.546Z,-3.74
2019-01-24T08:13:02.266Z,-3.76
2019-01-24T08:15:31.329Z,-3.79
2019-01-24T08:18:00.322Z,-3.75
2019-01-24T08:20:29.308Z,-3.81
2019-01-24T08:22:58.207Z,-3.77
2019-01-24T08:25:26.958Z,-3.74
2019-01-24T08:27:56.399Z,-3.72
2019-01-24T08:30:27.187Z,-3.71
2019-01-24T08:32:56.275Z,-3.67
2019-01-24T08:35:25.632Z,-3.75
2019-01-24T08:37:54.346Z,-3.72
2019-01-24T08:40:23.414Z,-3.65
2019-01-24T08:42:52.518Z,-3.60
2019-01-24T08:45:21.286Z,-3.58
2019-01-24T08:47:50.317Z,-3.60
2019-01-24T08:50:20.607Z,-3.60
2019-01-24T08:52:49.410Z,-3.60
2019-01-24T08:55:35.519Z,-3.68
2019-01-24T08:58:04.554Z,-3.48
2019-01-24T09:00:33.287Z,-3.34
2019-01-24T09:03:01.949Z,-3.45
2019-01-24T09:05:30.853Z,-2.71
2019-01-24T09:07:59.559Z,-3.29
2019-01-24T09:10:31.006Z,-3.37
2019-01-24T09:13:00.196Z,-3.43
2019-01-24T09:15:29.509Z,-3.44
2019-01-24T09:17:58.149Z,-3.43
2019-01-24T09:20:27.093Z,-3.47
2019-01-24T09:22:56.050Z,-3.45
2019-01-24T09:25:24.971Z,-3.42
2019-01-24T09:27:53.688Z,-3.44
2019-01-24T09:30:24.042Z,-3.43
2019-01-24T09:32:52.820Z,-3.42
2019-01-24T09:35:21.872Z,-3.36
2019-01-24T09:37:50.497Z,-3.33
2019-01-24T09:40:19.648Z,-3.23
2019-01-24T09:42:48.642Z,-3.24
2019-01-24T09:45:19.829Z,-3.20
2019-01-24T09:47:48.952Z,-3.16
2019-01-24T09:50:20.039Z,-3.15
2019-01-24T09:52:48.714Z,-3.22
2019-01-24T09:55:17.418Z,-3.16
2019-01-24T09:57:46.068Z,-3.12
2019-01-24T10:00:17.632Z,-3.11
2019-01-24T10:02:46.347Z,-3.09
2019-01-24T10:05:15.594Z,-3.10
2019-01-24T10:07:44.615Z,-3.06
2019-01-24T10:10:15.845Z,-3.07
2019-01-24T10:12:44.856Z,-3.04
2019-01-24T10:15:14.097Z,-3.04
2019-01-24T10:17:42.781Z,-2.96
2019-01-24T10:20:13.366Z,-2.90
2019-01-24T10:22:42.018Z,-2.94
2019-01-24T10:25:17.509Z,-2.91
2019-01-24T10:27:46.499Z,-2.90
2019-01-24T10:30:16.993Z,-2.84
2019-01-24T10:32:46.020Z,-2.86
2019-01-24T10:35:15.628Z,-2.86
2019-01-24T10:37:44.929Z,-2.80
2019-01-24T10:40:17.347Z,-2.82
2019-01-24T10:42:46.295Z,-2.82
2019-01-24T10:45:15.980Z,-2.73
2019-01-24T10:47:44.698Z,-2.71
2019-01-24T10:50:14.678Z,-2.57
2019-01-24T10:52:44.012Z,-2.64
2019-01-24T10:55:15.461Z,-2.71
2019-01-24T10:57:44.869Z,-2.84
2019-01-24T11:00:17.646Z,-2.30
2019-01-24T11:02:46.363Z,-2.25
2019-01-24T11:05:16.166Z,-1.71
2019-01-24T11:07:44.895Z,-2.04
2019-01-24T11:10:14.864Z,-2.16
2019-01-24T11:12:43.486Z,-2.23
2019-01-24T11:15:15.294Z,-2.30
2019-01-24T11:17:44.298Z,-2.27
2019-01-24T11:20:13.520Z,-2.33
2019-01-24T11:22:42.508Z,-2.27
2019-01-24T11:25:14.451Z,-2.33
2019-01-24T11:27:43.191Z,-2.28
2019-01-24T11:30:14.999Z,-2.21
2019-01-24T11:32:43.994Z,-2.38
2019-01-24T11:35:14.626Z,-2.41
2019-01-24T11:37:43.624Z,-2.30
2019-01-24T11:40:14.127Z,-2.32
2019-01-24T11:42:43.364Z,-2.49
2019-01-24T11:45:12.853Z,-2.44
2019-01-24T11:47:41.717Z,-2.23
2019-01-24T11:50:13.909Z,-2.22
2019-01-24T11:52:42.980Z,-2.21
2019-01-24T11:55:12.870Z,-2.33
2019-01-24T11:57:41.670Z,-2.28
2019-01-24T12:00:16.844Z,-2.25
2019-01-24T12:02:45.841Z,-2.54
2019-01-24T12:05:14.577Z,-2.30
2019-01-24T12:07:43.526Z,-2.18
2019-01-24T12:10:15.173Z,-2.28
2019-01-24T12:12:43.901Z,-2.15
2019-01-24T12:15:14.229Z,-2.28
2019-01-24T12:17:42.946Z,-2.38
2019-01-24T12:20:16.163Z,-2.42
2019-01-24T12:22:45.130Z,-2.39
2019-01-24T12:25:14.265Z,-2.38
2019-01-24T12:27:43.363Z,-2.52
2019-01-24T12:30:18.531Z,-2.40
2019-01-24T12:32:47.335Z,-2.52
2019-01-24T12:35:16.049Z,-2.56
2019-01-24T12:37:45.275Z,-2.44
2019-01-24T12:40:14.369Z,-2.36
2019-01-24T12:42:43.100Z,-2.39
2019-01-24T12:45:14.978Z,-2.11
2019-01-24T12:47:43.716Z,-1.93
2019-01-24T12:50:13.932Z,-1.61
2019-01-24T12:52:42.629Z,-1.14
2019-01-24T12:55:11.989Z,-0.59
2019-01-24T12:57:41.116Z,-0.44
2019-01-24T13:00:13.924Z,0.46
2019-01-24T13:02:42.990Z,0.39
2019-01-24T13:05:11.809Z,-0.59
2019-01-24T13:07:40.477Z,-1.20
2019-01-24T13:10:10.417Z,-1.06
2019-01-24T13:12:39.073Z,-0.81
2019-01-24T13:15:08.102Z,-1.01
2019-01-24T13:17:37.154Z,-0.83
2019-01-24T13:20:07.553Z,-0.74
2019-01-24T13:22:36.465Z,-0.88
2019-01-24T13:25:08.128Z,-0.98
2019-01-24T13:27:36.772Z,-0.78
2019-01-24T13:30:08.213Z,-1.24
2019-01-24T13:32:37.257Z,-1.47
2019-01-24T13:35:06.076Z,-1.36
2019-01-24T13:37:34.744Z,-1.49
2019-01-24T13:40:03.488Z,-1.30
2019-01-24T13:42:32.414Z,-1.22
2019-01-24T13:45:01.064Z,-0.79
2019-01-24T13:47:29.992Z,-0.46
2019-01-24T13:49:58.992Z,-0.46
2019-01-24T13:52:27.979Z,-0.41
2019-01-24T13:54:56.876Z,-0.57
2019-01-24T13:57:25.524Z,-0.32
2019-01-24T13:59:54.647Z,-0.88
2019-01-24T14:02:23.963Z,-1.14
2019-01-24T14:04:52.847Z,-1.06
2019-01-24T14:07:21.572Z,-0.97
2019-01-24T14:09:50.199Z,-1.10
2019-01-24T14:12:19.132Z,-1.14
2019-01-24T14:14:48.308Z,-0.95
2019-01-24T14:17:17.200Z,-0.91
2019-01-24T14:19:46.095Z,-1.12
2019-01-24T14:22:15.128Z,-1.49
2019-01-24T14:24:44.079Z,-1.51
2019-01-24T14:27:12.783Z,-1.53
2019-01-24T14:29:41.769Z,-1.63
2019-01-24T14:32:10.399Z,-1.61
2019-01-24T14:34:39.854Z,-1.66
2019-01-24T14:37:09.052Z,-1.89
2019-01-24T14:39:37.704Z,-1.87
2019-01-24T14:42:06.413Z,-2.08
2019-01-24T14:44:35.416Z,-2.03
2019-01-24T14:47:04.307Z,-2.27
2019-01-24T14:49:32.960Z,-2.18
2019-01-24T14:52:01.625Z,-2.31
2019-01-24T14:54:30.980Z,-2.23
2019-01-24T14:56:59.871Z,-2.35
2019-01-24T14:59:28.865Z,-2.51
2019-01-24T15:01:58.167Z,-2.44
2019-01-24T15:04:27.260Z,-2.33
2019-01-24T15:06:55.890Z,-2.41
2019-01-24T15:09:24.867Z,-2.50
2019-01-24T15:11:53.546Z,-2.62
2019-01-24T15:14:22.521Z,-2.43
2019-01-24T15:16:51.174Z,-2.53
2019-01-24T15:19:20.411Z,-2.69
2019-01-24T15:21:49.069Z,-2.74
2019-01-24T15:24:17.690Z,-2.72
2019-01-24T15:26:46.345Z,-2.74
2019-01-24T15:29:14.968Z,-2.75
2019-01-24T15:31:43.946Z,-2.94
2019-01-24T15:34:12.936Z,-3.05
2019-01-24T15:36:41.927Z,-3.06
2019-01-24T15:39:10.574Z,-3.14
2019-01-24T15:41:39.817Z,-3.01
2019-01-24T15:44:08.528Z,-3.07
2019-01-24T15:46:37.498Z,-2.93
2019-01-24T15:49:06.485Z,-2.99
2019-01-24T15:51:35.480Z,-3.01
2019-01-24T15:54:04.579Z,-3.08
2019-01-24T15:56:33.569Z,-3.11
2019-01-24T15:59:02.465Z,-3.12
2019-01-24T16:01:31.182Z,-3.09
2019-01-24T16:04:00.148Z,-3.11
2019-01-24T16:06:29.733Z,-3.12
2019-01-24T16:08:58.639Z,-3.16
2019-01-24T16:11:27.644Z,-3.09
2019-01-24T16:13:56.624Z,-2.91
2019-01-24T16:16:25.253Z,-3.01
2019-01-24T16:18:54.208Z,-3.03
2019-01-24T16:21:23.200Z,-3.11
2019-01-24T16:23:52.080Z,-2.89
2019-01-24T16:26:21.083Z,-2.72
2019-01-24T16:28:49.735Z,-2.69
2019-01-24T16:31:18.356Z,-2.73
2019-01-24T16:33:47.031Z,-2.62
2019-01-24T16:36:15.782Z,-2.68
2019-01-24T16:38:44.719Z,-2.67
2019-01-24T16:41:13.628Z,-2.90
2019-01-24T16:43:42.325Z,-3.00
2019-01-24T16:46:11.700Z,-2.98
2019-01-24T16:48:40.592Z,-2.87
2019-01-24T16:51:09.331Z,-2.78
2019-01-24T16:53:37.967Z,-2.62
2019-01-24T16:56:06.667Z,-2.58
2019-01-24T16:58:35.953Z,-2.76
2019-01-24T17:01:09.871Z,-2.74
2019-01-24T17:03:38.515Z,-2.60
2019-01-24T17:06:07.856Z,-2.49
2019-01-24T17:08:36.508Z,-2.54
2019-01-24T17:11:05.519Z,-2.55
2019-01-24T17:13:34.528Z,-2.63
2019-01-24T17:16:03.845Z,-2.77
2019-01-24T17:18:32.558Z,-2.83
2019-01-24T17:21:01.504Z,-2.81
2019-01-24T17:23:30.497Z,-2.75
2019-01-24T17:25:59.617Z,-2.81
2019-01-24T17:28:28.587Z,-2.73
2019-01-24T17:30:57.525Z,-2.79
2019-01-24T17:33:26.474Z,-2.71
2019-01-24T17:35:55.104Z,-2.59
2019-01-24T17:38:24.167Z,-2.76
2019-01-24T17:40:53.151Z,-2.43
2019-01-24T17:43:22.466Z,-2.51
2019-01-24T17:45:51.446Z,-2.74
2019-01-24T17:48:20.452Z,-2.62
2019-01-24T17:50:49.341Z,-2.79
2019-01-24T17:53:17.975Z,-2.73
2019-01-24T17:55:47.307Z,-2.65
2019-01-24T17:58:16.310Z,-2.59
2019-01-24T18:00:50.405Z,-2.60
2019-01-24T18:03:19.325Z,-2.62
2019-01-24T18:05:48.310Z,-2.67
2019-01-24T18:08:17.300Z,-2.74
2019-01-24T18:10:45.945Z,-2.87
2019-01-24T18:13:14.853Z,-2.80
2019-01-24T18:15:43.983Z,-2.67
2019-01-24T18:18:14.373Z,-2.45
2019-01-24T18:20:43.611Z,-2.54
2019-01-24T18:23:12.812Z,-2.55
2019-01-24T18:25:41.908Z,-2.74
2019-01-24T18:28:12.639Z,-2.50
2019-01-24T18:30:41.735Z,-2.60
2019-01-24T18:33:10.728Z,-2.52
2019-01-24T18:35:39.520Z,-2.73
2019-01-24T18:38:08.938Z,-2.84
2019-01-24T18:40:37.775Z,-3.05
2019-01-24T18:43:10.467Z,-3.19
2019-01-24T18:45:42.938Z,-3.33
2019-01-24T18:48:11.662Z,-3.34
2019-01-24T18:50:40.357Z,-3.41
2019-01-24T18:53:09.107Z,-3.33
2019-01-24T18:55:37.748Z,-3.34
2019-01-24T18:58:07.325Z,-3.37
2019-01-24T19:00:38.765Z,-3.38
2019-01-24T19:03:08.680Z,-3.49
2019-01-24T19:05:37.879Z,-3.45
2019-01-24T19:08:06.719Z,-3.45
2019-01-24T19:10:35.446Z,-3.51
2019-01-24T19:13:05.115Z,-3.47
2019-01-24T19:15:33.793Z,-3.51
2019-01-24T19:18:02.748Z,-3.56
2019-01-24T19:20:31.514Z,-3.62
2019-01-24T19:23:00.528Z,-3.61
2019-01-24T19:25:29.154Z,-3.64
2019-01-24T19:27:58.144Z,-3.73
2019-01-24T19:30:29.255Z,-3.77
2019-01-24T19:32:57.879Z,-3.80
2019-01-24T19:35:26.581Z,-3.82
2019-01-24T19:37:55.567Z,-3.83
2019-01-24T19:40:25.348Z,-3.91
2019-01-24T19:42:54.059Z,-3.90
2019-01-24T19:45:24.092Z,-3.86
2019-01-24T19:47:52.940Z,-3.83
2019-01-24T19:50:23.861Z,-3.88
2019-01-24T19:52:52.768Z,-4.00
2019-01-24T19:55:21.838Z,-4.11
2019-01-24T19:57:50.779Z,-4.10
2019-01-24T20:00:24.700Z,-3.98
2019-01-24T20:02:53.753Z,-4.08
2019-01-24T20:05:22.736Z,-4.09
2019-01-24T20:07:51.830Z,-4.19
2019-01-24T20:10:22.298Z,-4.17
2019-01-24T20:12:51.371Z,-4.08
2019-01-24T20:15:22.001Z,-4.04
2019-01-24T20:17:51.051Z,-4.09
2019-01-24T20:20:20.339Z,-4.12
2019-01-24T20:22:49.558Z,-4.24
2019-01-24T20:25:20.226Z,-4.24
2019-01-24T20:27:48.931Z,-4.20
2019-01-24T20:30:22.207Z,-4.18
2019-01-24T20:32:51.403Z,-4.16
2019-01-24T20:35:26.340Z,-4.20
2019-01-24T20:37:55.037Z,-4.16
2019-01-24T20:40:23.739Z,-4.22
2019-01-24T20:42:52.803Z,-4.25
2019-01-24T20:45:21.798Z,-4.23
2019-01-24T20:47:50.795Z,-4.21
2019-01-24T20:50:19.465Z,-4.23
2019-01-24T20:52:48.472Z,-4.21
2019-01-24T20:55:17.206Z,-4.25
2019-01-24T20:57:46.560Z,-4.23
2019-01-24T21:00:20.058Z,-4.21
2019-01-24T21:02:49.667Z,-4.36
2019-01-24T21:05:19.935Z,-4.30
2019-01-24T21:07:49.143Z,-4.35
2019-01-24T21:10:22.892Z,-4.33
2019-01-24T21:12:52.196Z,-4.45
2019-01-24T21:15:21.598Z,-4.40
2019-01-24T21:17:50.591Z,-4.47
2019-01-24T21:20:24.093Z,-4.55
2019-01-24T21:22:53.084Z,-4.53
2019-01-24T21:25:22.811Z,-4.53
2019-01-24T21:27:51.526Z,-4.49
2019-01-24T21:30:25.960Z,-4.52
2019-01-24T21:32:55.020Z,-4.54
2019-01-24T21:35:24.300Z,-4.54
2019-01-24T21:37:53.043Z,-4.54
2019-01-24T21:40:22.490Z,-4.52
2019-01-24T21:42:51.792Z,-4.58
2019-01-24T21:45:23.141Z,-4.54
2019-01-24T21:47:52.441Z,-4.53
2019-01-24T21:50:22.691Z,-4.59
2019-01-24T21:52:51.656Z,-4.59
2019-01-24T21:55:21.346Z,-4.56
2019-01-24T21:57:50.563Z,-4.58
2019-01-24T22:00:21.163Z,-4.56
2019-01-24T22:02:50.609Z,-4.59
2019-01-24T22:05:20.299Z,-4.48
2019-01-24T22:07:49.413Z,-4.53
2019-01-24T22:10:20.560Z,-4.53
2019-01-24T22:12:49.351Z,-4.52
2019-01-24T22:15:19.669Z,-4.50
2019-01-24T22:17:48.667Z,-4.59
2019-01-24T22:20:17.757Z,-4.53
2019-01-24T22:22:46.779Z,-4.61
2019-01-24T22:25:17.470Z,-4.55
2019-01-24T22:27:46.687Z,-4.58
2019-01-24T22:30:21.548Z,-4.46
2019-01-24T22:32:50.610Z,-4.37
2019-01-24T22:35:19.324Z,-4.36
2019-01-24T22:37:48.111Z,-4.49
2019-01-24T22:40:16.923Z,-4.47
2019-01-24T22:42:45.969Z,-4.45
2019-01-24T22:45:17.726Z,-4.46
2019-01-24T22:47:46.722Z,-4.45
2019-01-24T22:50:16.336Z,-4.51
2019-01-24T22:52:45.390Z,-4.53
2019-01-24T22:55:15.197Z,-4.53
2019-01-24T22:57:43.828Z,-4.54
2019-01-24T23:00:47.428Z,-4.53
2019-01-24T23:03:19.289Z,-4.55
2019-01-24T23:05:47.935Z,-4.57
2019-01-24T23:08:16.869Z,-4.52
2019-01-24T23:10:45.572Z,-4.48
2019-01-24T23:13:14.218Z,-4.47
2019-01-24T23:15:43.237Z,-4.36
2019-01-24T23:18:12.249Z,-4.42
2019-01-24T23:20:40.965Z,-4.48
2019-01-24T23:23:09.701Z,-4.52
2019-01-24T23:25:38.343Z,-4.48
2019-01-24T23:28:07.996Z,-4.43
2019-01-24T23:30:36.643Z,-4.41
2019-01-24T23:33:05.778Z,-4.42
2019-01-24T23:35:34.423Z,-4.35
2019-01-24T23:38:03.162Z,-4.42
2019-01-24T23:40:32.354Z,-4.41
2019-01-24T23:43:01.343Z,-4.37
2019-01-24T23:45:30.079Z,-4.35
2019-01-24T23:47:59.025Z,-4.42
2019-01-24T23:50:27.663Z,-4.40
2019-01-24T23:52:56.819Z,-4.35
2019-01-24T23:55:25.439Z,-4.23
2019-01-24T23:57:54.124Z,-4.32
